Time;durP1;ratioP1;P1;durP2;ratioP2;P2;SDS_P1;SDS_P2;PMS_P1;PMS_P2;Temp;Humidity;BMP_temperature;BMP_pressure;BME280_temperature;BME280_humidity;BME280_pressure;Samples;Min_cycle;Max_cycle;Signal;HPM_P1;HPM_P2
2021/03/10 00:02:56;;;;;;;52.98;22.05;;;;;;;-3.43;100.00;99429.08;4240269;82;44110;-77
2021/03/10 00:08:59;;;;;;;49.80;20.80;;;;;;;-3.42;100.00;99433.38;4239231;82;43756;-78
2021/03/10 00:15:04;;;;;;;46.35;20.75;;;;;;;-3.41;100.00;99420.57;4246452;82;43765;-78
2021/03/10 00:21:06;;;;;;;50.28;20.52;;;;;;;-3.42;100.00;99415.47;4235624;82;28605;-78
2021/03/10 00:27:09;;;;;;;53.95;21.70;;;;;;;-3.47;100.00;99429.47;4248226;83;44158;-78
2021/03/10 00:33:10;;;;;;;54.77;22.22;;;;;;;-3.49;100.00;99430.91;4273461;83;44102;-77
2021/03/10 00:39:13;;;;;;;49.25;20.82;;;;;;;-3.51;100.00;99429.73;4270757;82;44449;-77
2021/03/10 00:45:15;;;;;;;54.98;21.75;;;;;;;-3.63;100.00;99429.47;4360521;81;44208;-76
2021/03/10 00:51:17;;;;;;;63.45;23.57;;;;;;;-3.64;100.00;99412.86;4341616;81;43311;-77
2021/03/10 00:57:19;;;;;;;58.60;23.52;;;;;;;-3.70;100.00;99410.73;4363802;81;44167;-76
2021/03/10 01:03:21;;;;;;;53.05;22.13;;;;;;;-3.66;100.00;99396.39;4371276;81;44139;-77
2021/03/10 01:09:23;;;;;;;54.70;22.73;;;;;;;-3.70;100.00;99398.09;4366616;81;44124;-77
2021/03/10 01:15:25;;;;;;;53.45;21.12;;;;;;;-3.81;100.00;99402.92;4371691;80;44119;-76
2021/03/10 01:21:27;;;;;;;56.13;22.50;;;;;;;-3.94;100.00;99397.39;4353912;81;44178;-76
2021/03/10 01:27:29;;;;;;;56.98;21.93;;;;;;;-3.92;100.00;99397.28;4375280;81;44100;-78
2021/03/10 01:33:31;;;;;;;58.55;22.27;;;;;;;-3.93;100.00;99389.05;4365380;81;44154;-78
2021/03/10 01:39:36;;;;;;;51.90;21.17;;;;;;;-3.99;100.00;99393.02;4354751;81;44065;-77
2021/03/10 01:45:38;;;;;;;56.20;21.75;;;;;;;-4.03;100.00;99396.03;4364537;81;44120;-77
2021/03/10 01:51:40;;;;;;;51.53;22.15;;;;;;;-4.12;100.00;99389.73;4364493;81;44186;-77
2021/03/10 01:57:42;;;;;;;57.98;23.20;;;;;;;-4.20;100.00;99390.38;4368455;81;44164;-77
2021/03/10 02:03:44;;;;;;;60.60;23.75;;;;;;;-4.18;100.00;99386.32;4373724;81;44273;-78
2021/03/10 02:10:21;;;;;;;57.13;24.05;;;;;;;-4.30;100.00;99388.16;4212585;83;44114;-77
2021/03/10 02:16:59;;;;;;;61.15;24.30;;;;;;;-4.31;100.00;99389.97;4197549;82;28553;-76
2021/03/10 02:23:28;;;;;;;63.95;23.52;;;;;;;-4.26;100.00;99387.78;4334125;79;44042;-76
2021/03/10 02:29:31;;;;;;;61.65;23.27;;;;;;;-4.27;100.00;99390.05;4351524;80;44467;-77
2021/03/10 02:35:34;;;;;;;65.87;24.82;;;;;;;-4.28;100.00;99387.55;4345150;81;43805;-77
2021/03/10 02:41:37;;;;;;;53.68;21.73;;;;;;;-4.36;100.00;99390.80;4349709;81;44128;-78
2021/03/10 02:47:40;;;;;;;54.10;21.90;;;;;;;-4.45;100.00;99388.93;4323092;81;44111;-77
2021/03/10 02:53:44;;;;;;;56.42;22.55;;;;;;;-4.57;100.00;99394.72;4346491;81;44174;-77
2021/03/10 02:59:48;;;;;;;59.45;23.32;;;;;;;-4.63;100.00;99400.81;4371029;81;44151;-76
2021/03/10 03:05:51;;;;;;;53.63;21.87;;;;;;;-4.53;100.00;99400.06;4337813;81;28571;-76
2021/03/10 03:11:53;;;;;;;57.80;23.05;;;;;;;-4.58;100.00;99404.38;4267771;82;44150;-77
2021/03/10 03:17:56;;;;;;;50.67;22.45;;;;;;;-4.60;100.00;99399.73;4286923;82;44441;-76
2021/03/10 03:23:58;;;;;;;50.10;21.48;;;;;;;-4.65;100.00;99388.77;4301350;82;44429;-77
2021/03/10 03:30:04;;;;;;;59.77;22.05;;;;;;;-4.79;100.00;99396.43;4298305;82;44130;-77
2021/03/10 03:36:08;;;;;;;;;;;;;;;-4.74;100.00;99394.75;4303133;82;28585;-77
2021/03/10 03:42:11;;;;;;;51.77;21.33;;;;;;;-4.94;100.00;99395.40;4288281;82;44145;-78
2021/03/10 03:48:13;;;;;;;53.00;22.42;;;;;;;-5.07;100.00;99402.58;4297240;82;44098;-77
2021/03/10 03:54:16;;;;;;;52.27;21.82;;;;;;;-5.04;100.00;99401.02;4299753;82;44023;-76
2021/03/10 04:00:24;;;;;;;52.43;22.20;;;;;;;-5.14;100.00;99409.25;4300773;82;44066;-76
2021/03/10 04:06:26;;;;;;;54.90;21.68;;;;;;;-5.20;100.00;99404.02;4300803;82;44097;-77
2021/03/10 04:12:29;;;;;;;51.85;21.90;;;;;;;-5.21;100.00;99399.73;4291328;82;44003;-77
2021/03/10 04:18:31;;;;;;;51.58;21.12;;;;;;;-5.32;100.00;99410.58;4291638;82;44429;-77
2021/03/10 04:24:33;;;;;;;55.08;23.27;;;;;;;-5.43;100.00;99409.73;4284172;82;44147;-78
2021/03/10 04:30:35;;;;;;;52.78;22.32;;;;;;;-5.53;100.00;99409.62;4292737;82;44149;-78
2021/03/10 04:36:37;;;;;;;48.50;22.10;;;;;;;-5.39;100.00;99417.25;4257897;82;44414;-76
2021/03/10 04:42:39;;;;;;;56.50;22.22;;;;;;;-5.38;100.00;99415.47;4293088;82;44098;-76
2021/03/10 04:48:42;;;;;;;51.53;21.57;;;;;;;-5.60;100.00;99411.89;4262231;82;43585;-77
2021/03/10 04:54:44;;;;;;;52.90;21.27;;;;;;;-5.71;100.00;99416.63;4297652;82;44090;-76
2021/03/10 05:00:46;;;;;;;55.40;21.93;;;;;;;-5.70;100.00;99413.55;4275275;82;44153;-76
2021/03/10 05:06:48;;;;;;;51.55;22.05;;;;;;;-5.89;100.00;99420.98;4283042;82;43901;-76
2021/03/10 05:12:50;;;;;;;54.88;21.90;;;;;;;-5.77;100.00;99416.62;4283162;82;44122;-76
2021/03/10 05:18:52;;;;;;;55.92;22.40;;;;;;;-5.71;100.00;99432.34;4253077;82;44226;-77
2021/03/10 05:24:55;;;;;;;56.45;21.95;;;;;;;-5.76;100.00;99430.56;4238340;82;44186;-77
2021/03/10 05:30:57;;;;;;;53.35;22.15;;;;;;;-5.76;100.00;99439.73;4267678;82;44215;-77
2021/03/10 05:36:59;;;;;;;56.65;21.80;;;;;;;-5.80;100.00;99433.88;4252347;82;44099;-78
2021/03/10 05:43:02;;;;;;;62.50;23.92;;;;;;;-5.81;100.00;99435.30;4335244;81;43663;-78
2021/03/10 05:49:06;;;;;;;56.85;23.07;;;;;;;-5.80;100.00;99431.27;4354741;80;44118;-75
2021/03/10 05:55:10;;;;;;;54.48;23.50;;;;;;;-5.56;100.00;99440.00;4368560;80;44124;-77
2021/03/10 06:01:12;;;;;;;58.15;23.65;;;;;;;-5.48;100.00;99441.08;4365153;80;44106;-76
2021/03/10 06:07:23;;;;;;;56.92;23.75;;;;;;;-5.24;100.00;99445.36;4367459;80;44108;-77
2021/03/10 06:13:32;;;;;;;63.28;25.72;;;;;;;-5.13;100.00;99455.03;4284209;81;43356;-75
2021/03/10 06:19:48;;;;;;;61.88;25.20;;;;;;;-4.84;100.00;99444.05;4271605;82;43321;-77
2021/03/10 06:25:51;;;;;;;67.35;26.45;;;;;;;-4.65;100.00;99449.11;4313247;81;43273;-79
2021/03/10 06:32:08;;;;;;;71.40;29.00;;;;;;;-4.41;100.00;99462.55;4298815;82;44132;-80
2021/03/10 06:38:17;;;;;;;67.53;27.22;;;;;;;-4.21;100.00;99470.96;4341798;82;44130;-77
2021/03/10 06:44:23;;;;;;;75.03;28.95;;;;;;;-4.08;100.00;99474.71;4265812;82;44161;-79
2021/03/10 06:50:34;;;;;;;68.22;27.40;;;;;;;-3.92;100.00;99476.91;4269008;83;28660;-78
2021/03/10 06:56:36;;;;;;;73.25;28.10;;;;;;;-3.71;100.00;99489.22;4325150;81;44100;-78
2021/03/10 07:02:38;;;;;;;67.75;28.92;;;;;;;-3.53;100.00;99499.17;4256616;83;44152;-79
2021/03/10 07:08:41;;;;;;;69.60;26.40;;;;;;;-3.38;100.00;99497.05;4274995;83;43908;-78
2021/03/10 07:14:46;;;;;;;76.65;30.88;;;;;;;-3.20;100.00;99499.91;4336757;81;44691;-79
2021/03/10 07:20:49;;;;;;;62.62;24.82;;;;;;;-3.01;100.00;99499.19;4342491;81;28621;-79
2021/03/10 07:26:51;;;;;;;62.35;25.48;;;;;;;-2.87;100.00;99499.79;4336696;81;43237;-78
2021/03/10 07:32:59;;;;;;;73.67;28.60;;;;;;;-2.72;100.00;99511.61;4341524;81;44116;-79
2021/03/10 07:39:05;;;;;;;60.30;24.27;;;;;;;-2.67;100.00;99505.94;4423065;80;44130;-80
2021/03/10 07:45:09;;;;;;;57.73;23.27;;;;;;;-2.35;100.00;99519.39;4427224;80;44168;-80
2021/03/10 07:51:34;;;;;;;54.83;22.35;;;;;;;-2.26;100.00;99523.03;4401478;80;44091;-79
2021/03/10 07:57:36;;;;;;;57.17;22.50;;;;;;;-1.97;100.00;99522.24;4270505;83;28621;-78
2021/03/10 08:03:38;;;;;;;51.10;21.17;;;;;;;-1.82;100.00;99520.84;4404209;80;43960;-80
2021/03/10 08:09:46;;;;;;;52.50;22.90;;;;;;;-1.60;100.00;99519.39;4411036;80;43918;-80
2021/03/10 08:16:03;;;;;;;48.02;20.12;;;;;;;-1.41;100.00;99515.89;4409366;80;43780;-81
2021/03/10 08:22:06;;;;;;;44.75;18.12;;;;;;;-1.26;100.00;99513.63;4283894;83;43794;-80
2021/03/10 08:28:14;;;;;;;36.35;17.02;;;;;;;-1.14;100.00;99506.39;4315413;82;44478;-81
2021/03/10 08:34:30;;;;;;;39.92;17.37;;;;;;;-0.98;100.00;99507.10;4287140;81;44476;-82
2021/03/10 08:40:34;;;;;;;;;;;;;;;-0.87;100.00;99517.48;4304060;82;28663;-82
2021/03/10 08:46:42;;;;;;;28.23;12.55;;;;;;;-0.60;90.31;99521.09;4308628;82;43407;-81
2021/03/10 08:52:45;;;;;;;24.18;10.03;;;;;;;-0.52;81.91;99525.66;4313899;82;44450;-78
2021/03/10 08:58:53;;;;;;;15.35;5.80;;;;;;;-0.40;78.57;99517.03;4322102;82;43907;-80
2021/03/10 09:04:58;;;;;;;11.53;4.87;;;;;;;-0.33;64.93;99530.00;4314043;82;43245;-82
2021/03/10 09:11:00;;;;;;;10.20;5.00;;;;;;;-0.32;59.74;99530.34;4296787;82;43333;-78
2021/03/10 09:17:17;;;;;;;8.63;3.15;;;;;;;-0.22;56.56;99521.02;4395695;79;73404;-78
2021/03/10 09:23:26;;;;;;;6.75;3.45;;;;;;;-0.19;51.16;99525.18;4307802;80;28617;-78
2021/03/10 09:29:36;;;;;;;9.83;4.53;;;;;;;-0.02;53.08;99511.16;4227646;82;42724;-79
2021/03/10 09:35:38;;;;;;;7.60;3.42;;;;;;;0.23;57.17;99519.81;4197125;83;42691;-91
2021/03/10 09:41:48;;;;;;;11.68;4.70;;;;;;;0.32;54.94;99520.70;4203744;83;43266;-82
2021/03/10 09:48:06;;;;;;;12.05;4.60;;;;;;;0.25;49.38;99515.19;4603418;76;73774;-85
2021/03/10 09:54:12;;;;;;;11.50;4.85;;;;;;;0.37;52.32;99503.89;4484079;78;43273;-84
2021/03/10 10:00:21;;;;;;;9.18;4.50;;;;;;;0.34;50.27;99519.57;4491227;78;42690;-85
2021/03/10 10:06:25;;;;;;;8.48;4.40;;;;;;;0.36;48.81;99528.66;4482524;77;42728;-88
2021/03/10 10:12:29;;;;;;;9.28;4.50;;;;;;;0.35;46.45;99525.20;4488547;78;42685;-85
2021/03/10 10:18:36;;;;;;;9.93;5.12;;;;;;;0.47;47.23;99517.86;4506953;77;42949;-86
2021/03/10 10:24:41;;;;;;;15.18;5.53;;;;;;;0.44;47.53;99525.27;4456787;78;43904;-90
2021/03/10 10:30:44;;;;;;;12.88;4.87;;;;;;;0.57;49.71;99516.44;4472051;78;43277;-89
2021/03/10 10:36:50;;;;;;;12.13;4.53;;;;;;;0.65;49.85;99516.98;4483056;78;43215;-88
2021/03/10 10:42:56;;;;;;;10.70;4.80;;;;;;;0.63;49.52;99514.51;4465811;78;43247;-86
2021/03/10 10:48:58;;;;;;;14.47;5.95;;;;;;;0.68;50.86;99512.20;4480266;78;43940;-86
2021/03/10 10:55:12;;;;;;;13.83;5.37;;;;;;;0.85;51.49;99514.97;4487517;78;43210;-86
2021/03/10 11:01:15;;;;;;;13.90;5.92;;;;;;;0.74;49.24;99520.53;4488197;78;43958;-89
2021/03/10 11:07:18;;;;;;;9.93;5.28;;;;;;;0.91;50.14;99508.22;4479523;78;43225;-87
2021/03/10 11:13:24;;;;;;;8.50;4.42;;;;;;;0.89;49.00;99511.53;4487742;78;42721;-86
2021/03/10 11:19:28;;;;;;;10.72;5.12;;;;;;;0.94;48.24;99507.42;4484630;78;43214;-87
2021/03/10 11:25:33;;;;;;;13.32;5.47;;;;;;;0.95;49.50;99511.73;4475961;78;43231;-85
2021/03/10 11:31:38;;;;;;;11.08;5.35;;;;;;;0.93;46.73;99521.62;4493803;78;43319;-86
2021/03/10 11:37:42;;;;;;;;;;;;;;;1.05;46.61;99499.69;4499857;78;28545;-87
2021/03/10 11:43:44;;;;;;;10.98;4.40;;;;;;;1.10;46.36;99500.05;4497056;77;43246;-84
2021/03/10 11:49:47;;;;;;;11.88;5.25;;;;;;;1.16;44.64;99508.34;4358142;80;43224;-87
2021/03/10 11:55:49;;;;;;;10.85;4.67;;;;;;;0.97;46.45;99507.09;4357748;80;43212;-81
2021/03/10 12:01:51;;;;;;;12.40;5.47;;;;;;;1.28;47.21;99487.20;4357514;80;43305;-79
2021/03/10 12:07:56;;;;;;;13.10;5.83;;;;;;;1.02;46.07;99499.16;4345228;81;43237;-80
2021/03/10 12:14:00;;;;;;;13.72;6.55;;;;;;;1.23;47.18;99508.87;4356823;80;43939;-80
2021/03/10 12:20:05;;;;;;;11.28;5.65;;;;;;;1.18;46.83;99510.33;4348149;80;43209;-80
2021/03/10 12:26:07;;;;;;;11.60;5.40;;;;;;;1.36;46.77;99501.81;4320272;80;43213;-79
2021/03/10 12:32:10;;;;;;;10.50;6.47;;;;;;;1.69;47.76;99498.92;4351041;80;28639;-78
2021/03/10 12:38:13;;;;;;;10.75;5.42;;;;;;;1.70;46.03;99504.56;4329528;81;43246;-87
2021/03/10 12:44:16;;;;;;;14.73;6.62;;;;;;;2.08;45.91;99504.48;4307124;81;28568;-85
2021/03/10 12:50:19;;;;;;;15.30;6.70;;;;;;;1.73;45.51;99518.33;4263545;82;28568;-81
2021/03/10 12:56:21;;;;;;;14.98;7.00;;;;;;;1.81;45.24;99505.58;4277628;81;43932;-81
2021/03/10 13:02:24;;;;;;;11.80;6.35;;;;;;;2.02;45.74;99509.59;4265113;81;43250;-82
2021/03/10 13:08:27;;;;;;;13.15;6.22;;;;;;;2.16;45.47;99505.47;4303569;82;29120;-82
2021/03/10 13:14:29;;;;;;;16.70;7.10;;;;;;;2.54;47.25;99500.98;4296854;81;28575;-80
2021/03/10 13:20:31;;;;;;;13.35;6.47;;;;;;;2.86;48.46;99506.76;4273204;82;28581;-80
2021/03/10 13:26:33;;;;;;;14.50;6.05;;;;;;;2.71;45.46;99512.41;4301764;81;28589;-80
2021/03/10 13:32:36;;;;;;;12.13;6.20;;;;;;;2.57;45.36;99519.25;4308861;81;28596;-80
2021/03/10 13:38:40;;;;;;;12.63;6.50;;;;;;;2.55;44.87;99515.43;4296049;82;28557;-80
2021/03/10 13:44:43;;;;;;;18.02;7.08;;;;;;;2.65;45.60;99530.69;4321484;81;28625;-82
2021/03/10 13:50:46;;;;;;;10.05;5.97;;;;;;;2.27;44.37;99527.70;4363409;80;28582;-81
2021/03/10 13:56:49;;;;;;;11.83;5.60;;;;;;;2.79;44.71;99513.25;4342164;80;28541;-83
2021/03/10 14:02:53;;;;;;;15.30;6.72;;;;;;;3.14;46.59;99515.66;4326235;81;28546;-84
2021/03/10 14:08:57;;;;;;;11.28;5.75;;;;;;;2.73;45.29;99528.52;4353253;81;28575;-89
2021/03/10 14:15:00;;;;;;;11.22;6.15;;;;;;;2.66;45.29;99530.20;4362396;81;28581;-92
2021/03/10 14:21:03;;;;;;;14.00;5.37;;;;;;;2.75;45.24;99529.17;4352597;80;28551;-85
2021/03/10 14:27:05;;;;;;;11.70;5.55;;;;;;;2.92;47.99;99527.83;4342617;80;28955;-88
2021/03/10 14:33:07;;;;;;;13.43;5.75;;;;;;;3.05;46.83;99524.66;4341588;81;28579;-89
2021/03/10 14:39:10;;;;;;;14.33;6.03;;;;;;;3.05;46.73;99520.67;4367519;80;28539;-87
2021/03/10 14:45:12;;;;;;;13.32;6.42;;;;;;;2.97;46.35;99505.59;4370687;80;28602;-88
2021/03/10 14:51:15;;;;;;;12.23;5.90;;;;;;;2.62;46.76;99506.30;4347247;80;28613;-87
2021/03/10 14:57:17;;;;;;;13.70;6.60;;;;;;;2.61;46.23;99496.67;4365627;81;28564;-82
2021/03/10 15:03:19;;;;;;;15.48;7.30;;;;;;;2.64;47.32;99501.16;4347666;81;28551;-81
2021/03/10 15:09:22;;;;;;;12.82;6.47;;;;;;;2.36;47.66;99503.34;4335847;80;28578;-85
2021/03/10 15:15:24;;;;;;;11.53;5.87;;;;;;;2.06;46.72;99497.17;4352501;81;28611;-84
2021/03/10 15:21:27;;;;;;;11.93;6.53;;;;;;;1.84;47.35;99499.97;4332434;80;28626;-81
2021/03/10 15:27:30;;;;;;;11.00;5.22;;;;;;;1.54;47.32;99500.89;4346630;80;28635;-82
2021/03/10 15:33:32;;;;;;;15.43;5.60;;;;;;;1.60;49.92;99495.44;4350001;80;43976;-82
2021/03/10 15:39:34;;;;;;;13.10;6.35;;;;;;;1.45;50.49;99499.20;4328563;80;43922;-82
2021/03/10 15:45:37;;;;;;;12.35;5.60;;;;;;;1.10;49.28;99509.80;4345362;81;43225;-83
2021/03/10 15:51:41;;;;;;;10.70;5.08;;;;;;;1.06;49.75;99502.66;4329509;80;28538;-82
2021/03/10 15:57:43;;;;;;;11.73;5.72;;;;;;;0.90;51.33;99498.63;4334586;80;43231;-81
2021/03/10 16:03:46;;;;;;;10.03;4.90;;;;;;;0.77;50.42;99503.00;4355323;80;43223;-86
2021/03/10 16:09:48;;;;;;;14.28;6.03;;;;;;;0.73;52.83;99514.88;4358905;80;43923;-84
2021/03/10 16:15:50;;;;;;;10.80;5.00;;;;;;;0.63;52.43;99518.95;4348560;80;43219;-84
2021/03/10 16:21:57;;;;;;;10.68;6.03;;;;;;;0.50;52.88;99519.34;4342788;80;43293;-82
2021/03/10 16:27:57;;;;;;;12.73;5.85;;;;;;;0.29;53.24;99523.15;4341980;81;43205;-83
2021/03/10 16:34:00;;;;;;;11.78;5.83;;;;;;;0.04;54.22;99521.62;4352857;80;43240;-92
2021/03/10 16:40:08;;;;;;;13.62;5.75;;;;;;;-0.12;54.76;99534.66;4349223;81;43911;-88
2021/03/10 16:46:13;;;;;;;16.17;5.90;;;;;;;-0.36;56.02;99531.62;4316188;80;43925;-90
2021/03/10 16:52:18;;;;;;;11.55;5.20;;;;;;;-0.49;57.45;99535.93;4344556;80;43213;-89
2021/03/10 16:58:23;;;;;;;16.70;5.65;;;;;;;-0.66;58.59;99550.75;4363960;81;43958;-88
2021/03/10 17:04:33;;;;;;;13.57;5.83;;;;;;;-0.80;60.63;99544.60;4344456;80;34013;-81
2021/03/10 17:10:45;;;;;;;11.43;5.22;;;;;;;-1.03;62.84;99542.32;4314855;80;43209;-77
2021/03/10 17:17:04;;;;;;;14.70;6.25;;;;;;;-1.15;64.14;99554.37;4434265;79;104857;-83
2021/03/10 17:23:07;;;;;;;10.58;5.28;;;;;;;-1.24;62.72;99557.03;4364918;80;43241;-83
2021/03/10 17:29:10;;;;;;;12.07;5.20;;;;;;;-1.43;63.97;99564.00;4348090;81;43561;-84
2021/03/10 17:35:13;;;;;;;11.55;4.78;;;;;;;-1.52;65.27;99568.29;4358635;80;43385;-81
2021/03/10 17:41:15;;;;;;;11.50;5.17;;;;;;;-1.67;66.85;99566.55;4362370;81;43280;-81
2021/03/10 17:47:17;;;;;;;13.30;5.53;;;;;;;-1.72;66.93;99577.55;4360769;80;43441;-78
2021/03/10 17:53:20;;;;;;;12.65;6.08;;;;;;;-1.85;68.21;99583.08;4347520;81;43232;-81
2021/03/10 17:59:22;;;;;;;12.35;5.80;;;;;;;-1.97;69.66;99574.95;4362090;80;43213;-83
2021/03/10 18:05:24;;;;;;;13.20;5.92;;;;;;;-2.01;72.91;99575.70;4347761;81;43600;-81
2021/03/10 18:11:26;;;;;;;16.45;7.22;;;;;;;-2.09;72.59;99574.23;4347734;80;43970;-84
2021/03/10 18:17:29;;;;;;;15.85;6.90;;;;;;;-2.15;71.92;99579.55;4366156;80;43981;-83
2021/03/10 18:23:31;;;;;;;14.85;6.45;;;;;;;-2.24;70.74;99575.09;4350932;81;43955;-81
2021/03/10 18:29:34;;;;;;;15.13;6.05;;;;;;;-2.35;72.89;99585.24;4361943;80;43954;-84
2021/03/10 18:35:36;;;;;;;15.48;7.20;;;;;;;-2.41;74.31;99587.11;4371043;81;43903;-82
2021/03/10 18:41:41;;;;;;;17.27;6.72;;;;;;;-2.54;76.10;99593.45;4373548;81;43913;-82
2021/03/10 18:47:45;;;;;;;17.77;7.17;;;;;;;-2.70;81.83;99582.55;4361082;81;34095;-81
2021/03/10 18:53:48;;;;;;;21.25;9.20;;;;;;;-2.81;86.66;99579.05;4347244;81;43919;-81
2021/03/10 18:59:50;;;;;;;27.22;10.45;;;;;;;-2.77;84.48;99603.31;4361513;81;43304;-84
2021/03/10 19:05:53;;;;;;;23.00;10.03;;;;;;;-2.78;82.19;99604.28;4343393;81;44466;-82
2021/03/10 19:11:56;;;;;;;25.60;10.85;;;;;;;-2.88;85.09;99606.84;4367841;80;42897;-84
2021/03/10 19:17:58;;;;;;;29.27;10.95;;;;;;;-2.88;88.73;99609.47;4363620;80;43441;-80
2021/03/10 19:24:01;;;;;;;29.57;12.40;;;;;;;-2.86;91.43;99625.99;4357050;81;43426;-82
2021/03/10 19:30:06;;;;;;;35.43;13.60;;;;;;;-2.92;85.93;99620.38;4357235;81;44113;-80
2021/03/10 19:36:11;;;;;;;33.28;13.18;;;;;;;-3.02;87.80;99626.91;4348452;81;44107;-81
2021/03/10 19:42:13;;;;;;;33.38;13.60;;;;;;;-3.05;90.13;99624.55;4374811;81;44128;-81
2021/03/10 19:48:16;;;;;;;33.08;13.85;;;;;;;-3.13;92.06;99626.02;4375365;80;44416;-82
2021/03/10 19:54:19;;;;;;;35.43;16.02;;;;;;;-3.22;95.97;99624.15;4347020;80;44309;-81
2021/03/10 20:00:22;;;;;;;47.25;16.87;;;;;;;-3.34;98.88;99635.69;4350270;81;43808;-80
2021/03/10 20:06:26;;;;;;;43.55;16.77;;;;;;;-3.45;100.00;99640.03;4343890;81;43354;-79
2021/03/10 20:12:29;;;;;;;43.20;16.50;;;;;;;-3.56;100.00;99647.97;4345242;81;44467;-83
2021/03/10 20:18:32;;;;;;;40.15;16.73;;;;;;;-3.57;100.00;99642.36;4373094;81;44435;-82
2021/03/10 20:24:34;;;;;;;39.63;16.67;;;;;;;-3.71;100.00;99635.58;4373071;81;44483;-85
2021/03/10 20:30:37;;;;;;;46.23;17.82;;;;;;;-3.79;100.00;99630.45;4382453;80;43835;-81
2021/03/10 20:36:39;;;;;;;45.33;18.73;;;;;;;-3.83;100.00;99636.93;4358787;81;43777;-81
2021/03/10 20:42:43;;;;;;;56.02;20.05;;;;;;;-3.92;100.00;99629.29;4364551;81;44131;-85
2021/03/10 20:48:46;;;;;;;51.18;19.82;;;;;;;-3.86;100.00;99635.02;4296147;82;44027;-86
2021/03/10 20:54:48;;;;;;;56.75;20.77;;;;;;;-4.01;100.00;99611.66;4289615;82;44169;-83
2021/03/10 21:00:51;;;;;;;58.83;22.85;;;;;;;-4.13;100.00;99612.16;4209667;83;44185;-80
2021/03/10 21:06:54;;;;;;;59.95;22.25;;;;;;;-4.19;100.00;99615.25;4204289;82;44156;-82
2021/03/10 21:12:59;;;;;;;;;;;;;;;-4.17;100.00;99615.95;4279714;82;28554;-82
2021/03/10 21:19:02;;;;;;;54.03;20.97;;;;;;;-4.22;100.00;99612.41;4280678;82;44082;-80
2021/03/10 21:25:06;;;;;;;59.35;22.05;;;;;;;-4.28;100.00;99601.06;4274253;82;44212;-84
2021/03/10 21:31:11;;;;;;;56.50;22.15;;;;;;;-4.40;100.00;99584.98;4225977;83;44137;-83
2021/03/10 21:37:14;;;;;;;59.38;22.62;;;;;;;-4.39;100.00;99573.52;4226118;83;28560;-84
2021/03/10 21:43:19;;;;;;;58.42;24.23;;;;;;;-4.49;100.00;99564.20;4277882;81;44112;-82
2021/03/10 21:49:21;;;;;;;;;;;;;;;-4.55;100.00;99545.84;4269092;82;28644;-82
2021/03/10 21:55:24;;;;;;;56.00;22.50;;;;;;;-4.56;100.00;99538.11;4260077;82;44142;-82
2021/03/10 22:01:26;;;;;;;58.65;22.25;;;;;;;-4.62;100.00;99525.81;4246379;82;44146;-79
2021/03/10 22:07:29;;;;;;;57.38;21.65;;;;;;;-4.57;100.00;99516.76;4252616;82;44118;-85
2021/03/10 22:13:31;;;;;;;58.38;21.80;;;;;;;-4.59;100.00;99512.93;4188182;83;44117;-87
2021/03/10 22:19:33;;;;;;;62.38;21.20;;;;;;;-4.57;100.00;99520.20;4222191;83;44473;-86
2021/03/10 22:25:37;;;;;;;59.30;22.00;;;;;;;-4.65;100.00;99517.34;4213320;82;44572;-86
2021/03/10 22:31:39;;;;;;;52.43;20.25;;;;;;;-4.69;100.00;99516.74;4235903;82;44376;-86
2021/03/10 22:37:42;;;;;;;59.20;22.32;;;;;;;-4.59;100.00;99520.80;4298201;82;44133;-84
2021/03/10 22:43:44;;;;;;;58.73;21.85;;;;;;;-4.66;100.00;99528.80;4280871;81;44097;-87
2021/03/10 22:49:46;;;;;;;61.90;23.45;;;;;;;-4.72;100.00;99525.36;4301172;81;43688;-89
2021/03/10 22:55:50;;;;;;;59.38;21.62;;;;;;;-4.78;100.00;99524.88;4298361;82;44110;-89
2021/03/10 23:01:52;;;;;;;59.48;22.75;;;;;;;-4.91;100.00;99524.17;4287701;81;44101;-88
2021/03/10 23:07:55;;;;;;;60.63;22.45;;;;;;;-4.98;100.00;99525.12;4269416;81;44101;-86
2021/03/10 23:13:57;;;;;;;56.20;21.68;;;;;;;-4.98;100.00;99528.21;4298429;81;44089;-86
2021/03/10 23:20:04;;;;;;;61.73;22.00;;;;;;;-4.97;100.00;99535.13;4285541;81;28622;-86
2021/03/10 23:26:08;;;;;;;63.17;21.93;;;;;;;-5.08;100.00;99530.23;4285922;81;44452;-85
2021/03/10 23:32:10;;;;;;;64.10;22.70;;;;;;;-5.13;100.00;99531.53;4159905;84;43863;-85
2021/03/10 23:38:13;;;;;;;63.90;23.35;;;;;;;-5.22;100.00;99527.34;4195608;83;43742;-85
2021/03/10 23:44:15;;;;;;;61.50;23.25;;;;;;;-5.28;100.00;99532.23;4213118;82;44446;-85
2021/03/10 23:50:28;;;;;;;55.90;22.48;;;;;;;-5.37;100.00;99520.67;4299594;81;44129;-83
2021/03/10 23:56:32;;;;;;;59.90;22.50;;;;;;;-5.45;100.00;99526.50;4270768;82;28556;-85
